Wardsboro, VT

3:40 AM EDT on April 21, 2015 (GMT -0400)
Harriman And West | | Change Station
CLOSE
Current Station
Airport
Location: North Adams,
Elevation: 653 ft
Nearby Weather Stations

Elev 653 ft 42.70 °N, 73.17 °W | Updated 7 minutes ago

Thunderstorm
Thunderstorm
49 °F
Feels Like 49 °F
N
6
Wind Variable Wind from ENE

Today
High -- | Low -- °F
--% Chance of Precip.
Yesterday
High -- | Low -- °F
Precip. -- in
6:00 AM 7:40 PM
Waxing Crescent, 9% visible
Pressure 29.59 in
Visibility 3.0 miles
Clouds Mostly Cloudy 2300 ft
Mostly Cloudy 3400 ft
Overcast 5000 ft
Dew Point 46 °F
Humidity 90%
Rainfall 0.17 in
Snow Depth Not available.
UV 0 out of 12
Pollen 4.50 out of 12
Air Quality Not available.
Flu Activity Regional
SPECI KAQW 210733Z AUTO 06005KT 3SM VCTS RA BR BKN023 BKN034 OVC050 09/08 A2959 RMK AO2 LTG DSNT N-E TSE13 P0018 T00940078

More Conditions Fewer Conditions

Pressure 29.59 in
Visibility 3.0 miles
Clouds Mostly Cloudy 2300 ft
Mostly Cloudy 3400 ft
Overcast 5000 ft
Dew Point 46 °F
Humidity 90%
Rainfall 0.17 in
Snow Depth Not available.
UV 0 out of 12
Pollen 4.50 out of 12
Air Quality Not available.
Flu Activity Regional
SPECI KAQW 210733Z AUTO 06005KT 3SM VCTS RA BR BKN023 BKN034 OVC050 09/08 A2959 RMK AO2 LTG DSNT N-E TSE13 P0018 T00940078

More Conditions Fewer Conditions

10-Day Weather Forecast

Almanac

Astronomy

Apr. 21, 2015 Rise Set
Actual Time
Civil Twilight
Nautical Twilight
Astronomical Twilight
Moon
Length of Visible Light
Length of Day
Tomorrow will be .
, % of the Moon is Illuminated

Today's Extremes

State Highs State Lows

Community

WunderPhotos

Upload Photos

1,815,324 photos uploaded!

WunderBlogs® & News

Nearby

Air Quality

  Air Quality AQ Index Pollutant
Not available.

Snow Depth

Station Depth Elevation

Earthquake Activity

City Distance Mag. Time & Date
Minimum magnitude displayed is 2.5.

Coastal Water Temperatures

Place Temperature

Stations

Nearby Weather Stations

Station Location Temp. Windchill Dew Point Humidity Wind Precip. Elev Updated Type